createdAt,value
2023-01-28T00:01:30.942Z,7.90
2023-01-28T00:03:59.020Z,7.90
2023-01-28T00:06:28.675Z,8.13
2023-01-28T00:08:57.023Z,7.80
2023-01-28T00:11:26.471Z,8.13
2023-01-28T00:13:55.754Z,7.77
2023-01-28T00:16:25.368Z,8.30
2023-01-28T00:18:53.599Z,8.10
2023-01-28T00:21:22.442Z,8.60
2023-01-28T00:23:55.787Z,8.40
2023-01-28T00:26:25.204Z,8.93
2023-01-28T00:28:55.561Z,8.93
2023-01-28T00:31:26.172Z,8.37
2023-01-28T00:33:56.306Z,8.80
2023-01-28T00:36:26.348Z,8.87
2023-01-28T00:38:58.347Z,8.80
2023-01-28T00:41:30.558Z,8.73
2023-01-28T00:43:59.559Z,9.23
2023-01-28T00:46:28.959Z,8.60
2023-01-28T00:48:58.096Z,8.97
2023-01-28T00:51:26.468Z,8.60
2023-01-28T00:53:56.428Z,8.80
2023-01-28T00:56:24.896Z,8.60
2023-01-28T00:58:59.760Z,8.67
2023-01-28T01:01:34.247Z,9.23
2023-01-28T01:04:03.779Z,9.13
2023-01-28T01:06:35.463Z,9.03
2023-01-28T01:09:08.809Z,8.33
2023-01-28T01:11:37.228Z,8.17
2023-01-28T01:14:07.009Z,8.63
2023-01-28T01:16:36.183Z,8.97
2023-01-28T01:19:32.446Z,9.40
2023-01-28T01:22:01.618Z,9.10
2023-01-28T01:24:37.123Z,8.77
2023-01-28T01:27:06.151Z,9.20
2023-01-28T01:29:35.121Z,9.33
2023-01-28T01:32:04.648Z,9.40
2023-01-28T01:34:33.021Z,8.67
2023-01-28T01:37:00.968Z,8.43
2023-01-28T01:39:30.602Z,9.20
2023-01-28T01:42:01.855Z,8.37
2023-01-28T01:44:57.227Z,8.10
2023-01-28T01:47:31.140Z,8.17
2023-01-28T01:50:01.821Z,7.73
2023-01-28T01:52:35.429Z,7.90
2023-01-28T01:55:14.833Z,7.33
2023-01-28T01:57:45.289Z,6.97
2023-01-28T02:00:15.169Z,6.53
2023-01-28T02:02:47.403Z,7.40
2023-01-28T02:05:19.881Z,7.77
2023-01-28T02:07:50.031Z,7.03
2023-01-28T02:10:20.113Z,7.50
2023-01-28T02:12:53.346Z,7.90
2023-01-28T02:15:25.410Z,7.50
2023-01-28T02:17:54.193Z,7.87
2023-01-28T02:20:26.832Z,7.57
2023-01-28T02:23:21.839Z,8.00
2023-01-28T02:26:25.503Z,8.87
2023-01-28T02:28:58.697Z,7.93
2023-01-28T02:31:31.788Z,6.80
2023-01-28T02:34:08.748Z,7.60
2023-01-28T02:36:47.460Z,7.40
2023-01-28T02:39:21.149Z,7.20
2023-01-28T02:41:57.310Z,7.10
2023-01-28T02:44:27.236Z,6.73
2023-01-28T02:47:12.634Z,6.57
2023-01-28T02:49:44.441Z,6.40
2023-01-28T02:52:51.056Z,5.87
2023-01-28T02:55:29.023Z,6.13
2023-01-28T02:58:04.893Z,5.93
2023-01-28T03:00:44.686Z,6.27
2023-01-28T03:03:20.155Z,6.00
2023-01-28T03:06:07.833Z,5.70
2023-01-28T03:08:58.341Z,5.90
2023-01-28T03:11:47.255Z,5.87
2023-01-28T03:14:35.567Z,5.40
2023-01-28T03:17:26.404Z,5.33
2023-01-28T03:20:12.603Z,5.43
2023-01-28T03:23:05.737Z,5.37
2023-01-28T03:25:56.133Z,5.13
2023-01-28T03:28:43.193Z,5.00
2023-01-28T03:31:31.982Z,4.67
2023-01-28T03:34:22.525Z,4.87
2023-01-28T03:36:53.318Z,4.43
2023-01-28T03:39:26.553Z,4.63
2023-01-28T03:42:01.031Z,4.27
2023-01-28T03:44:46.596Z,4.20
2023-01-28T03:47:14.817Z,4.50
2023-01-28T03:49:46.827Z,4.80
2023-01-28T03:52:18.926Z,4.60
2023-01-28T03:54:48.587Z,4.53
2023-01-28T03:57:17.436Z,4.50
2023-01-28T03:59:46.366Z,4.70
2023-01-28T04:02:15.445Z,4.70
2023-01-28T04:04:45.079Z,4.77
2023-01-28T04:07:15.563Z,4.60
2023-01-28T04:09:44.446Z,4.40
2023-01-28T04:12:13.711Z,5.40
2023-01-28T04:14:44.408Z,4.73
2023-01-28T04:17:14.533Z,5.40
2023-01-28T04:19:46.563Z,4.63
2023-01-28T04:22:16.124Z,5.30
2023-01-28T04:24:44.397Z,4.90
2023-01-28T04:27:13.371Z,4.60
2023-01-28T04:29:41.902Z,4.60
2023-01-28T04:32:11.771Z,4.60
2023-01-28T04:34:43.776Z,4.90
2023-01-28T04:37:13.230Z,4.57
2023-01-28T04:39:42.014Z,4.80
2023-01-28T04:42:10.801Z,4.67
2023-01-28T04:44:38.831Z,4.90
2023-01-28T04:47:06.993Z,5.10
2023-01-28T04:49:35.526Z,4.57
2023-01-28T04:52:03.597Z,5.27
2023-01-28T04:54:32.933Z,5.17
2023-01-28T04:57:03.316Z,4.90
2023-01-28T04:59:31.615Z,4.73
2023-01-28T05:02:00.409Z,4.67
2023-01-28T05:04:28.532Z,4.60
2023-01-28T05:06:56.634Z,4.83
2023-01-28T05:09:26.062Z,4.10
2023-01-28T05:12:18.924Z,4.70
2023-01-28T05:14:48.267Z,5.00
2023-01-28T05:17:39.850Z,5.50
2023-01-28T05:20:12.774Z,5.40
2023-01-28T05:22:46.097Z,5.33
2023-01-28T05:25:16.731Z,4.80
2023-01-28T05:27:51.823Z,5.10
2023-01-28T05:30:20.801Z,5.43
2023-01-28T05:32:51.262Z,4.90
2023-01-28T05:35:21.106Z,5.03
2023-01-28T05:37:57.028Z,5.03
2023-01-28T05:40:31.014Z,5.43
2023-01-28T05:43:03.859Z,4.63
2023-01-28T05:45:36.390Z,4.87
2023-01-28T05:48:06.217Z,4.53
2023-01-28T05:50:46.364Z,4.37
2023-01-28T05:56:04.237Z,4.83
2023-01-28T05:58:36.267Z,4.40
2023-01-28T06:01:08.540Z,4.43
2023-01-28T06:03:38.907Z,5.10
2023-01-28T06:06:08.262Z,5.13
2023-01-28T06:08:37.342Z,4.90
2023-01-28T06:11:08.174Z,4.50
2023-01-28T06:13:42.004Z,4.37
2023-01-28T06:16:13.629Z,5.10
2023-01-28T06:18:42.344Z,5.67
2023-01-28T06:21:11.832Z,5.67
2023-01-28T06:23:41.726Z,5.67
2023-01-28T06:26:11.266Z,6.47
2023-01-28T06:28:41.332Z,7.00
2023-01-28T06:31:12.774Z,7.00
2023-01-28T06:34:04.696Z,7.63
2023-01-28T06:36:37.120Z,7.50
2023-01-28T06:39:06.448Z,6.23
2023-01-28T06:41:35.250Z,6.13
2023-01-28T06:44:15.427Z,5.57
2023-01-28T06:46:49.401Z,5.93
2023-01-28T06:49:19.559Z,5.13
2023-01-28T06:51:47.512Z,5.60
2023-01-28T06:54:15.481Z,5.40
2023-01-28T06:56:44.522Z,5.47
2023-01-28T06:59:13.839Z,5.57
2023-01-28T07:01:41.810Z,5.57
2023-01-28T07:04:10.052Z,5.67
2023-01-28T07:06:38.113Z,6.17
2023-01-28T07:09:08.453Z,5.90
2023-01-28T07:11:36.427Z,6.37
2023-01-28T07:14:04.907Z,5.77
2023-01-28T07:16:34.456Z,5.57
2023-01-28T07:19:02.647Z,5.60
2023-01-28T07:21:30.715Z,5.60
2023-01-28T07:23:58.919Z,5.17
2023-01-28T07:26:26.964Z,5.73
2023-01-28T07:28:55.030Z,5.87
2023-01-28T07:31:23.170Z,4.90
2023-01-28T07:33:52.728Z,5.97
2023-01-28T07:36:20.766Z,5.23
2023-01-28T07:38:48.975Z,5.13
2023-01-28T07:41:17.022Z,5.43
2023-01-28T07:43:45.023Z,4.87
2023-01-28T07:46:13.331Z,5.00
2023-01-28T07:48:41.309Z,5.33
2023-01-28T07:51:10.634Z,5.70
2023-01-28T07:53:38.968Z,4.87
2023-01-28T07:56:07.364Z,5.10
2023-01-28T07:58:35.594Z,5.23
2023-01-28T08:01:04.517Z,5.30
2023-01-28T08:03:32.805Z,5.40
2023-01-28T08:06:00.780Z,5.13
2023-01-28T08:08:30.222Z,5.93
2023-01-28T08:10:58.360Z,5.63
2023-01-28T08:13:26.411Z,6.07
2023-01-28T08:15:57.776Z,5.80
2023-01-28T08:18:25.832Z,6.33
2023-01-28T08:20:56.935Z,6.20
2023-01-28T08:23:26.904Z,6.43
2023-01-28T08:25:59.040Z,6.27
2023-01-28T08:28:27.271Z,6.47
2023-01-28T08:30:55.321Z,6.30
2023-01-28T08:33:25.497Z,7.33
2023-01-28T08:35:53.691Z,6.70
2023-01-28T08:38:21.701Z,6.67
2023-01-28T08:40:50.887Z,6.83
2023-01-28T08:43:20.602Z,6.73
2023-01-28T08:45:49.070Z,7.00
2023-01-28T08:48:18.381Z,6.00
2023-01-28T08:50:46.848Z,6.20
2023-01-28T08:53:17.287Z,6.10
2023-01-28T08:55:46.808Z,6.60
2023-01-28T08:58:16.834Z,6.20
2023-01-28T09:00:47.221Z,6.00
2023-01-28T09:03:15.333Z,5.87
2023-01-28T09:05:43.313Z,6.17
2023-01-28T09:08:13.285Z,6.03
2023-01-28T09:10:42.262Z,6.73
2023-01-28T09:13:12.437Z,6.30
2023-01-28T09:15:40.682Z,6.67
2023-01-28T09:18:10.398Z,7.13
2023-01-28T09:20:38.651Z,7.40
2023-01-28T09:23:07.073Z,7.90
2023-01-28T09:25:37.580Z,7.27
2023-01-28T09:28:06.225Z,7.37
2023-01-28T09:30:37.435Z,6.90
2023-01-28T09:33:06.098Z,7.17
2023-01-28T09:35:36.852Z,6.87
2023-01-28T09:38:04.813Z,7.10
2023-01-28T09:40:38.212Z,6.67
2023-01-28T09:43:26.079Z,6.70
2023-01-28T09:45:56.920Z,7.03
2023-01-28T09:48:33.119Z,7.23
2023-01-28T09:51:02.935Z,6.70
2023-01-28T09:53:34.383Z,7.10
2023-01-28T09:56:04.254Z,7.63
2023-01-28T09:58:32.976Z,7.40
2023-01-28T10:01:05.785Z,6.93
2023-01-28T10:03:45.239Z,7.07
2023-01-28T10:06:25.146Z,7.10
2023-01-28T10:09:18.655Z,7.67
2023-01-28T10:12:02.358Z,7.10
2023-01-28T10:14:42.338Z,6.47
2023-01-28T10:17:18.127Z,7.00
2023-01-28T10:19:50.248Z,8.03
2023-01-28T10:22:24.430Z,7.70
2023-01-28T10:24:58.448Z,7.23
2023-01-28T10:27:31.029Z,7.47
2023-01-28T10:30:00.738Z,7.60
2023-01-28T10:32:34.322Z,7.20
2023-01-28T10:35:03.549Z,7.30
2023-01-28T10:37:36.539Z,7.10
2023-01-28T10:40:06.371Z,6.70
2023-01-28T10:42:36.083Z,6.93
2023-01-28T10:45:09.816Z,6.23
2023-01-28T10:47:45.188Z,6.40
2023-01-28T10:50:18.554Z,6.70
2023-01-28T10:53:05.642Z,6.60
2023-01-28T10:55:39.004Z,6.83
2023-01-28T10:58:13.916Z,6.73
2023-01-28T11:00:42.115Z,6.73
2023-01-28T11:03:19.653Z,5.93
2023-01-28T11:05:52.741Z,7.03
2023-01-28T11:08:23.139Z,7.07
2023-01-28T11:10:52.513Z,6.70
2023-01-28T11:13:24.846Z,6.90
2023-01-28T11:15:55.800Z,7.23
2023-01-28T11:18:26.702Z,6.40
2023-01-28T11:20:58.945Z,6.23
2023-01-28T11:23:30.659Z,6.50
2023-01-28T11:26:05.902Z,6.60
2023-01-28T11:28:34.720Z,6.67
2023-01-28T11:31:05.716Z,6.67
2023-01-28T11:33:37.695Z,6.63
2023-01-28T11:36:10.111Z,5.73
2023-01-28T11:38:50.516Z,6.27
2023-01-28T11:41:19.472Z,6.63
2023-01-28T11:43:47.587Z,6.27
2023-01-28T11:46:32.584Z,6.60
2023-01-28T11:49:07.469Z,6.00
2023-01-28T11:51:43.921Z,5.90
2023-01-28T11:54:27.236Z,5.90
2023-01-28T11:57:14.278Z,5.83
2023-01-28T12:00:08.113Z,6.13
2023-01-28T12:02:50.466Z,5.90
2023-01-28T12:05:31.625Z,5.67
2023-01-28T12:08:09.823Z,5.27
2023-01-28T12:10:49.890Z,5.13
2023-01-28T12:13:30.772Z,5.60
2023-01-28T12:16:33.365Z,5.50
2023-01-28T12:19:25.485Z,5.90
2023-01-28T12:22:18.746Z,5.83
2023-01-28T12:25:02.094Z,5.97
2023-01-28T12:27:44.736Z,6.57
2023-01-28T12:30:23.697Z,6.83
2023-01-28T12:33:17.520Z,5.93
2023-01-28T12:35:58.627Z,5.87
2023-01-28T12:38:40.451Z,6.10
2023-01-28T12:41:12.963Z,6.90
2023-01-28T12:43:56.877Z,6.67
2023-01-28T12:46:40.588Z,6.67
2023-01-28T12:49:14.426Z,6.60
2023-01-28T12:51:52.425Z,5.63
2023-01-28T12:54:27.081Z,6.23
2023-01-28T12:56:56.896Z,5.20
2023-01-28T12:59:31.568Z,5.70
2023-01-28T13:02:16.955Z,5.93
2023-01-28T13:04:52.022Z,6.00
2023-01-28T13:07:26.676Z,5.50
2023-01-28T13:10:04.946Z,5.83
2023-01-28T13:12:34.070Z,5.83
2023-01-28T13:15:04.046Z,5.53
2023-01-28T13:17:33.392Z,5.20
2023-01-28T13:20:01.836Z,5.73
2023-01-28T13:22:35.284Z,6.30
2023-01-28T13:25:21.529Z,5.53
2023-01-28T13:27:57.959Z,5.70
2023-01-28T13:30:30.431Z,6.30
2023-01-28T13:33:00.707Z,5.33
2023-01-28T13:35:35.111Z,5.53
2023-01-28T13:38:11.145Z,5.03
2023-01-28T13:40:41.671Z,5.20
2023-01-28T13:43:29.105Z,5.37
2023-01-28T13:46:00.017Z,5.63
2023-01-28T13:48:34.152Z,6.00
2023-01-28T13:51:04.309Z,5.93
2023-01-28T13:53:42.461Z,5.63
2023-01-28T13:56:21.881Z,5.63
2023-01-28T13:59:20.783Z,5.20
2023-01-28T14:02:27.135Z,5.57
2023-01-28T14:05:39.443Z,5.20
2023-01-28T14:08:48.859Z,5.10
2023-01-28T14:11:48.675Z,5.30
2023-01-28T14:14:44.391Z,5.27
2023-01-28T14:17:24.046Z,5.93
2023-01-28T14:19:54.966Z,5.60
2023-01-28T14:22:24.678Z,5.47
2023-01-28T14:24:52.801Z,5.67
2023-01-28T14:27:28.064Z,4.90
2023-01-28T14:30:07.860Z,5.67
2023-01-28T14:32:37.134Z,5.83
2023-01-28T14:35:10.270Z,5.73
2023-01-28T14:37:39.781Z,5.57
2023-01-28T14:40:13.980Z,5.80
2023-01-28T14:42:45.057Z,6.30
2023-01-28T14:45:24.957Z,5.97
2023-01-28T14:48:08.100Z,5.83
2023-01-28T14:51:00.449Z,5.83
2023-01-28T14:53:51.365Z,6.03
2023-01-28T14:56:31.457Z,5.17
2023-01-28T14:59:03.846Z,5.70
2023-01-28T15:01:33.053Z,5.90
2023-01-28T15:04:01.550Z,6.17
2023-01-28T15:06:35.560Z,6.00
2023-01-28T15:09:15.093Z,5.37
2023-01-28T15:11:44.958Z,6.13
2023-01-28T15:14:21.295Z,5.60
2023-01-28T15:16:50.791Z,5.73
2023-01-28T15:19:23.465Z,5.00
2023-01-28T15:21:55.764Z,4.47
2023-01-28T15:24:28.353Z,3.20
2023-01-28T15:26:56.397Z,2.93
2023-01-28T15:29:32.746Z,2.97
2023-01-28T15:32:00.832Z,2.80
2023-01-28T15:34:31.322Z,2.73
2023-01-28T15:36:59.826Z,3.03
2023-01-28T15:39:30.829Z,3.00
2023-01-28T15:42:02.291Z,3.30
2023-01-28T15:44:33.632Z,2.77
2023-01-28T15:47:02.825Z,2.83
2023-01-28T15:49:35.083Z,2.37
2023-01-28T15:52:03.687Z,2.03
2023-01-28T15:54:33.172Z,2.30
2023-01-28T15:57:11.701Z,1.87
2023-01-28T15:59:39.781Z,2.13
2023-01-28T16:02:23.438Z,1.70
2023-01-28T16:04:59.232Z,1.60
2023-01-28T16:07:29.207Z,1.83
2023-01-28T16:10:00.765Z,1.57
2023-01-28T16:12:29.794Z,1.40
2023-01-28T16:15:01.561Z,1.67
2023-01-28T16:17:31.564Z,1.87
2023-01-28T16:20:02.792Z,2.30
2023-01-28T16:22:35.354Z,2.70
2023-01-28T16:25:26.949Z,2.43
2023-01-28T16:27:57.778Z,2.40
2023-01-28T16:30:26.173Z,2.60
2023-01-28T16:32:55.715Z,2.03
2023-01-28T16:35:26.117Z,2.07
2023-01-28T16:37:54.185Z,1.90
2023-01-28T16:40:25.595Z,1.90
2023-01-28T16:42:55.818Z,2.30
2023-01-28T16:45:25.569Z,2.50
2023-01-28T16:47:54.141Z,2.77
2023-01-28T16:50:27.561Z,3.30
2023-01-28T16:52:58.062Z,3.13
2023-01-28T16:55:28.104Z,2.97
2023-01-28T16:57:58.741Z,2.70
2023-01-28T17:00:30.471Z,2.20
2023-01-28T17:02:58.819Z,2.30
2023-01-28T17:05:27.497Z,2.20
2023-01-28T17:07:59.327Z,2.80
2023-01-28T17:10:28.621Z,2.47
2023-01-28T17:12:58.674Z,2.07
2023-01-28T17:15:27.156Z,2.17
2023-01-28T17:17:55.570Z,2.00
2023-01-28T17:20:23.973Z,1.90
2023-01-28T17:22:52.090Z,2.27
2023-01-28T17:25:20.110Z,1.97
2023-01-28T17:27:51.150Z,2.27
2023-01-28T17:30:21.396Z,2.50
2023-01-28T17:32:49.549Z,2.30
2023-01-28T17:35:18.335Z,1.83
2023-01-28T17:37:46.508Z,2.30
2023-01-28T17:40:15.141Z,2.10
2023-01-28T17:42:43.236Z,2.60
2023-01-28T17:45:12.835Z,2.40
2023-01-28T17:47:40.824Z,2.57
2023-01-28T17:50:09.429Z,2.73
2023-01-28T17:52:37.590Z,3.17
2023-01-28T17:55:06.683Z,3.10
2023-01-28T17:57:34.759Z,2.73
2023-01-28T18:00:02.923Z,3.10
2023-01-28T18:02:32.920Z,3.00
2023-01-28T18:05:01.023Z,2.60
2023-01-28T18:07:29.025Z,2.63
2023-01-28T18:09:57.026Z,2.77
2023-01-28T18:12:25.226Z,2.93
2023-01-28T18:14:53.205Z,2.70
2023-01-28T18:17:21.489Z,3.20
2023-01-28T18:19:50.851Z,2.70
2023-01-28T18:22:18.795Z,2.60
2023-01-28T18:24:47.090Z,3.10
2023-01-28T18:27:15.345Z,2.90
2023-01-28T18:29:43.470Z,2.80
2023-01-28T18:32:11.482Z,3.17
2023-01-28T18:34:39.721Z,3.00
2023-01-28T18:37:09.969Z,3.77
2023-01-28T18:39:39.773Z,3.17
2023-01-28T18:42:08.873Z,3.17
2023-01-28T18:44:37.495Z,3.73
2023-01-28T18:47:05.513Z,3.93
2023-01-28T18:49:33.624Z,3.53
2023-01-28T18:52:01.599Z,3.93
2023-01-28T18:54:30.955Z,3.70
2023-01-28T18:56:59.691Z,4.70
2023-01-28T18:59:28.198Z,4.60
2023-01-28T19:01:58.219Z,4.27
2023-01-28T19:04:26.302Z,4.23
2023-01-28T19:06:58.010Z,5.03
2023-01-28T19:09:26.302Z,4.60
2023-01-28T19:11:55.659Z,3.93
2023-01-28T19:14:23.881Z,4.17
2023-01-28T19:16:52.227Z,3.67
2023-01-28T19:19:20.593Z,4.27
2023-01-28T19:21:49.005Z,5.00
2023-01-28T19:24:17.619Z,4.40
2023-01-28T19:26:46.355Z,4.40
2023-01-28T19:29:16.571Z,3.97
2023-01-28T19:31:49.261Z,4.03
2023-01-28T19:34:17.756Z,4.60
2023-01-28T19:36:47.820Z,4.10
2023-01-28T19:39:17.760Z,4.10
2023-01-28T19:41:46.943Z,3.90
2023-01-28T19:44:18.210Z,3.40
2023-01-28T19:46:46.997Z,3.53
2023-01-28T19:49:15.644Z,3.77
2023-01-28T19:51:45.197Z,3.80
2023-01-28T19:54:13.547Z,3.30
2023-01-28T19:56:41.665Z,3.73
2023-01-28T19:59:10.340Z,3.27
2023-01-28T20:01:40.348Z,3.67
2023-01-28T20:04:09.440Z,3.53
2023-01-28T20:06:38.260Z,3.37
2023-01-28T20:09:09.099Z,3.10
2023-01-28T20:11:57.523Z,3.40
2023-01-28T20:14:30.128Z,3.30
2023-01-28T20:17:07.837Z,4.33
2023-01-28T20:19:38.051Z,4.27
2023-01-28T20:22:06.827Z,4.60
2023-01-28T20:24:36.751Z,4.90
2023-01-28T20:27:06.992Z,5.10
2023-01-28T20:29:39.054Z,4.77
2023-01-28T20:32:17.055Z,5.30
2023-01-28T20:34:48.719Z,5.40
2023-01-28T20:37:16.843Z,5.90
2023-01-28T20:39:44.947Z,6.13
2023-01-28T20:42:14.241Z,6.60
2023-01-28T20:44:43.852Z,6.60
2023-01-28T20:47:13.393Z,6.23
2023-01-28T20:49:44.251Z,6.27
2023-01-28T20:52:12.436Z,6.67
2023-01-28T20:54:40.595Z,6.53
2023-01-28T20:57:09.157Z,6.60
2023-01-28T20:59:37.579Z,7.20
2023-01-28T21:02:06.547Z,6.67
2023-01-28T21:04:36.957Z,7.07
2023-01-28T21:07:05.291Z,6.30
2023-01-28T21:09:33.438Z,7.27
2023-01-28T21:12:01.861Z,6.77
2023-01-28T21:14:29.867Z,6.83
2023-01-28T21:16:57.889Z,6.83
2023-01-28T21:19:26.063Z,6.87
2023-01-28T21:21:55.480Z,7.57
2023-01-28T21:24:23.731Z,6.80
2023-01-28T21:26:51.782Z,7.07
2023-01-28T21:29:19.784Z,7.47
2023-01-28T21:31:47.847Z,7.30
2023-01-28T21:34:16.798Z,7.00
2023-01-28T21:36:45.300Z,7.07
2023-01-28T21:39:15.043Z,7.60
2023-01-28T21:41:43.038Z,7.17
2023-01-28T21:44:12.869Z,7.20
2023-01-28T21:46:41.261Z,7.93
2023-01-28T21:49:11.176Z,7.60
2023-01-28T21:51:40.377Z,9.00
2023-01-28T21:54:11.542Z,9.37
2023-01-28T21:56:40.970Z,8.70
2023-01-28T21:59:27.710Z,8.30
2023-01-28T22:01:55.990Z,9.47
2023-01-28T22:04:24.565Z,8.50
2023-01-28T22:06:54.749Z,8.87
2023-01-28T22:09:22.974Z,8.70
2023-01-28T22:11:52.636Z,8.73
2023-01-28T22:14:20.929Z,8.27
2023-01-28T22:16:49.041Z,8.70
2023-01-28T22:19:17.229Z,8.23
2023-01-28T22:21:46.913Z,8.83
2023-01-28T22:24:17.317Z,9.27
2023-01-28T22:26:47.334Z,8.17
2023-01-28T22:29:18.433Z,8.23
2023-01-28T22:31:46.998Z,8.63
2023-01-28T22:34:15.690Z,8.63
2023-01-28T22:36:44.008Z,8.23
2023-01-28T22:39:15.468Z,8.83
2023-01-28T22:41:44.567Z,8.67
2023-01-28T22:44:12.741Z,9.37
2023-01-28T22:46:42.357Z,8.83
2023-01-28T22:49:12.050Z,9.07
2023-01-28T22:51:40.203Z,9.47
2023-01-28T22:54:09.150Z,8.93
2023-01-28T22:56:37.149Z,8.63
2023-01-28T22:59:05.443Z,9.37
2023-01-28T23:01:35.416Z,7.97
2023-01-28T23:04:04.996Z,9.20
2023-01-28T23:06:33.757Z,9.10
2023-01-28T23:09:01.831Z,9.20
2023-01-28T23:11:29.831Z,8.97
2023-01-28T23:14:16.982Z,8.47
2023-01-28T23:17:03.089Z,9.03
2023-01-28T23:19:50.506Z,9.33
2023-01-28T23:22:39.952Z,8.10
2023-01-28T23:25:08.746Z,9.40
2023-01-28T23:27:36.936Z,8.67
2023-01-28T23:30:10.016Z,8.67
2023-01-28T23:32:39.935Z,8.60
2023-01-28T23:35:11.230Z,8.40
2023-01-28T23:37:39.357Z,7.87
2023-01-28T23:40:08.925Z,8.73
2023-01-28T23:42:36.890Z,8.50
2023-01-28T23:45:05.333Z,8.27
2023-01-28T23:47:33.606Z,8.43
2023-01-28T23:50:01.905Z,8.33
2023-01-28T23:52:31.255Z,8.33
2023-01-28T23:54:59.361Z,9.33
2023-01-28T23:57:27.366Z,8.97
2023-01-28T23:59:55.644Z,9.43
